sensor_id;sensor_type;location;lat;lon;timestamp;temperature;humidity
12827;DHT22;66927;48.812;9.118;2023-03-05T00:01:36;3.10;99.90
12827;DHT22;66927;48.812;9.118;2023-03-05T00:04:03;3.20;99.90
12827;DHT22;66927;48.812;9.118;2023-03-05T00:06:31;3.20;99.90
12827;DHT22;66927;48.812;9.118;2023-03-05T00:08:56;3.20;99.90
12827;DHT22;66927;48.812;9.118;2023-03-05T00:11:24;3.10;99.90
12827;DHT22;66927;48.812;9.118;2023-03-05T00:13:52;3.10;99.90
12827;DHT22;66927;48.812;9.118;2023-03-05T00:16:18;3.20;99.90
12827;DHT22;66927;48.812;9.118;2023-03-05T00:18:44;3.30;99.90
12827;DHT22;66927;48.812;9.118;2023-03-05T00:21:52;3.20;99.90
12827;DHT22;66927;48.812;9.118;2023-03-05T00:24:16;3.20;99.90
12827;DHT22;66927;48.812;9.118;2023-03-05T00:26:43;3.10;99.90
12827;DHT22;66927;48.812;9.118;2023-03-05T00:29:11;3.10;99.90
12827;DHT22;66927;48.812;9.118;2023-03-05T00:31:39;3.10;99.90
12827;DHT22;66927;48.812;9.118;2023-03-05T00:34:07;3.00;99.90
12827;DHT22;66927;48.812;9.118;2023-03-05T00:36:34;3.00;99.90
12827;DHT22;66927;48.812;9.118;2023-03-05T00:39:03;3.00;99.90
12827;DHT22;66927;48.812;9.118;2023-03-05T00:41:28;3.20;99.90
12827;DHT22;66927;48.812;9.118;2023-03-05T00:43:54;3.10;99.90
12827;DHT22;66927;48.812;9.118;2023-03-05T00:46:20;3.10;99.90
12827;DHT22;66927;48.812;9.118;2023-03-05T00:48:47;3.20;99.90
12827;DHT22;66927;48.812;9.118;2023-03-05T00:51:13;3.30;99.90
12827;DHT22;66927;48.812;9.118;2023-03-05T00:53:38;3.40;99.90
12827;DHT22;66927;48.812;9.118;2023-03-05T00:56:05;3.30;99.90
12827;DHT22;66927;48.812;9.118;2023-03-05T00:58:30;3.20;99.90
12827;DHT22;66927;48.812;9.118;2023-03-05T01:00:57;3.30;99.90
12827;DHT22;66927;48.812;9.118;2023-03-05T01:03:24;3.30;99.90
12827;DHT22;66927;48.812;9.118;2023-03-05T01:05:50;3.20;99.90
12827;DHT22;66927;48.812;9.118;2023-03-05T01:08:15;3.20;99.90
12827;DHT22;66927;48.812;9.118;2023-03-05T01:10:42;3.30;99.90
12827;DHT22;66927;48.812;9.118;2023-03-05T01:13:07;3.20;99.90
12827;DHT22;66927;48.812;9.118;2023-03-05T01:15:33;3.20;99.90
12827;DHT22;66927;48.812;9.118;2023-03-05T01:17:59;3.20;99.90
12827;DHT22;66927;48.812;9.118;2023-03-05T01:20:24;3.30;99.90
12827;DHT22;66927;48.812;9.118;2023-03-05T01:22:50;3.40;99.90
12827;DHT22;66927;48.812;9.118;2023-03-05T01:25:16;3.40;99.90
12827;DHT22;66927;48.812;9.118;2023-03-05T01:27:42;3.30;99.90
12827;DHT22;66927;48.812;9.118;2023-03-05T01:30:08;3.30;99.90
12827;DHT22;66927;48.812;9.118;2023-03-05T01:32:34;3.30;99.90
12827;DHT22;66927;48.812;9.118;2023-03-05T01:35:01;3.20;99.90
12827;DHT22;66927;48.812;9.118;2023-03-05T01:37:27;3.30;99.90
12827;DHT22;66927;48.812;9.118;2023-03-05T01:39:53;3.50;99.90
12827;DHT22;66927;48.812;9.118;2023-03-05T01:42:18;3.20;99.90
12827;DHT22;66927;48.812;9.118;2023-03-05T01:45:04;3.20;99.90
12827;DHT22;66927;48.812;9.118;2023-03-05T01:47:31;3.20;99.90
12827;DHT22;66927;48.812;9.118;2023-03-05T01:49:56;3.20;99.90
12827;DHT22;66927;48.812;9.118;2023-03-05T01:52:24;3.00;99.90
12827;DHT22;66927;48.812;9.118;2023-03-05T01:54:57;3.20;99.90
12827;DHT22;66927;48.812;9.118;2023-03-05T01:57:36;3.10;99.90
12827;DHT22;66927;48.812;9.118;2023-03-05T02:00:10;3.30;99.90
12827;DHT22;66927;48.812;9.118;2023-03-05T02:02:37;3.30;99.90
12827;DHT22;66927;48.812;9.118;2023-03-05T02:05:07;3.30;99.90
12827;DHT22;66927;48.812;9.118;2023-03-05T02:07:35;3.30;99.90
12827;DHT22;66927;48.812;9.118;2023-03-05T02:10:24;3.30;99.90
12827;DHT22;66927;48.812;9.118;2023-03-05T02:12:52;3.30;99.90
12827;DHT22;66927;48.812;9.118;2023-03-05T02:15:19;3.30;99.90
12827;DHT22;66927;48.812;9.118;2023-03-05T02:17:45;3.30;99.90
12827;DHT22;66927;48.812;9.118;2023-03-05T02:20:18;3.40;99.90
12827;DHT22;66927;48.812;9.118;2023-03-05T02:22:44;3.40;99.90
12827;DHT22;66927;48.812;9.118;2023-03-05T02:25:15;3.50;99.90
12827;DHT22;66927;48.812;9.118;2023-03-05T02:27:43;3.30;99.90
12827;DHT22;66927;48.812;9.118;2023-03-05T02:30:11;3.40;99.90
12827;DHT22;66927;48.812;9.118;2023-03-05T02:32:37;3.40;99.90
12827;DHT22;66927;48.812;9.118;2023-03-05T02:35:03;3.40;99.90
12827;DHT22;66927;48.812;9.118;2023-03-05T02:37:28;3.30;99.90
12827;DHT22;66927;48.812;9.118;2023-03-05T02:39:54;3.40;99.90
12827;DHT22;66927;48.812;9.118;2023-03-05T02:42:19;3.50;99.90
12827;DHT22;66927;48.812;9.118;2023-03-05T02:44:45;3.20;99.90
12827;DHT22;66927;48.812;9.118;2023-03-05T02:47:11;3.30;99.90
12827;DHT22;66927;48.812;9.118;2023-03-05T02:49:36;3.40;99.90
12827;DHT22;66927;48.812;9.118;2023-03-05T02:52:02;3.40;99.90
12827;DHT22;66927;48.812;9.118;2023-03-05T02:54:28;3.40;99.90
12827;DHT22;66927;48.812;9.118;2023-03-05T02:56:53;3.40;99.90
12827;DHT22;66927;48.812;9.118;2023-03-05T02:59:19;3.40;99.90
12827;DHT22;66927;48.812;9.118;2023-03-05T03:01:44;3.20;99.90
12827;DHT22;66927;48.812;9.118;2023-03-05T03:04:10;3.40;99.90
12827;DHT22;66927;48.812;9.118;2023-03-05T03:06:36;3.20;99.90
12827;DHT22;66927;48.812;9.118;2023-03-05T03:09:01;3.20;99.90
12827;DHT22;66927;48.812;9.118;2023-03-05T03:11:27;3.40;99.90
12827;DHT22;66927;48.812;9.118;2023-03-05T03:13:53;3.40;99.90
12827;DHT22;66927;48.812;9.118;2023-03-05T03:16:18;3.30;99.90
12827;DHT22;66927;48.812;9.118;2023-03-05T03:18:44;3.30;99.90
12827;DHT22;66927;48.812;9.118;2023-03-05T03:21:23;3.30;99.90
12827;DHT22;66927;48.812;9.118;2023-03-05T03:23:49;3.30;99.90
12827;DHT22;66927;48.812;9.118;2023-03-05T03:26:15;3.20;99.90
12827;DHT22;66927;48.812;9.118;2023-03-05T03:28:42;3.30;99.90
12827;DHT22;66927;48.812;9.118;2023-03-05T03:31:07;3.30;99.90
12827;DHT22;66927;48.812;9.118;2023-03-05T03:33:33;3.40;99.90
12827;DHT22;66927;48.812;9.118;2023-03-05T03:35:59;3.40;99.90
12827;DHT22;66927;48.812;9.118;2023-03-05T03:38:24;3.50;99.90
12827;DHT22;66927;48.812;9.118;2023-03-05T03:40:50;3.30;99.90
12827;DHT22;66927;48.812;9.118;2023-03-05T03:43:16;3.30;99.90
12827;DHT22;66927;48.812;9.118;2023-03-05T03:45:42;3.20;99.90
12827;DHT22;66927;48.812;9.118;2023-03-05T03:48:09;3.20;99.90
12827;DHT22;66927;48.812;9.118;2023-03-05T03:50:42;3.20;99.90
12827;DHT22;66927;48.812;9.118;2023-03-05T03:53:08;3.20;99.90
12827;DHT22;66927;48.812;9.118;2023-03-05T03:55:39;3.20;99.90
12827;DHT22;66927;48.812;9.118;2023-03-05T03:58:05;3.20;99.90
12827;DHT22;66927;48.812;9.118;2023-03-05T04:00:31;3.20;99.90
12827;DHT22;66927;48.812;9.118;2023-03-05T04:02:56;3.30;99.90
12827;DHT22;66927;48.812;9.118;2023-03-05T04:05:22;3.30;99.90
12827;DHT22;66927;48.812;9.118;2023-03-05T04:07:48;3.30;99.90
12827;DHT22;66927;48.812;9.118;2023-03-05T04:10:13;3.50;99.90
12827;DHT22;66927;48.812;9.118;2023-03-05T04:12:39;3.30;99.90
12827;DHT22;66927;48.812;9.118;2023-03-05T04:15:08;3.40;99.90
12827;DHT22;66927;48.812;9.118;2023-03-05T04:17:34;3.40;99.90
12827;DHT22;66927;48.812;9.118;2023-03-05T04:20:00;3.60;99.90
12827;DHT22;66927;48.812;9.118;2023-03-05T04:22:26;3.40;99.90
12827;DHT22;66927;48.812;9.118;2023-03-05T04:24:51;3.40;99.90
12827;DHT22;66927;48.812;9.118;2023-03-05T04:27:17;3.40;99.90
12827;DHT22;66927;48.812;9.118;2023-03-05T04:29:43;3.20;99.90
12827;DHT22;66927;48.812;9.118;2023-03-05T04:32:08;3.30;99.90
12827;DHT22;66927;48.812;9.118;2023-03-05T04:34:36;3.20;99.90
12827;DHT22;66927;48.812;9.118;2023-03-05T04:37:02;3.30;99.90
12827;DHT22;66927;48.812;9.118;2023-03-05T04:39:27;3.30;99.90
12827;DHT22;66927;48.812;9.118;2023-03-05T04:41:53;3.30;99.90
12827;DHT22;66927;48.812;9.118;2023-03-05T04:44:19;3.40;99.90
12827;DHT22;66927;48.812;9.118;2023-03-05T04:46:48;3.30;99.90
12827;DHT22;66927;48.812;9.118;2023-03-05T04:49:13;3.20;99.90
12827;DHT22;66927;48.812;9.118;2023-03-05T04:51:40;3.10;99.90
12827;DHT22;66927;48.812;9.118;2023-03-05T04:54:06;3.30;99.90
12827;DHT22;66927;48.812;9.118;2023-03-05T04:56:32;3.20;99.90
12827;DHT22;66927;48.812;9.118;2023-03-05T04:58:59;3.30;99.90
12827;DHT22;66927;48.812;9.118;2023-03-05T05:01:25;3.30;99.90
12827;DHT22;66927;48.812;9.118;2023-03-05T05:03:50;3.30;99.90
12827;DHT22;66927;48.812;9.118;2023-03-05T05:06:16;3.30;99.90
12827;DHT22;66927;48.812;9.118;2023-03-05T05:08:42;3.20;99.90
12827;DHT22;66927;48.812;9.118;2023-03-05T05:11:12;3.30;99.90
12827;DHT22;66927;48.812;9.118;2023-03-05T05:13:38;3.20;99.90
12827;DHT22;66927;48.812;9.118;2023-03-05T05:16:07;3.20;99.90
12827;DHT22;66927;48.812;9.118;2023-03-05T05:18:33;3.10;99.90
12827;DHT22;66927;48.812;9.118;2023-03-05T05:20:58;3.10;99.90
12827;DHT22;66927;48.812;9.118;2023-03-05T05:23:24;3.20;99.90
12827;DHT22;66927;48.812;9.118;2023-03-05T05:26:00;3.20;99.90
12827;DHT22;66927;48.812;9.118;2023-03-05T05:28:27;3.20;99.90
12827;DHT22;66927;48.812;9.118;2023-03-05T05:30:53;3.20;99.90
12827;DHT22;66927;48.812;9.118;2023-03-05T05:33:20;3.20;99.90
12827;DHT22;66927;48.812;9.118;2023-03-05T05:35:46;3.10;99.90
12827;DHT22;66927;48.812;9.118;2023-03-05T05:38:11;3.10;99.90
12827;DHT22;66927;48.812;9.118;2023-03-05T05:40:37;3.10;99.90
12827;DHT22;66927;48.812;9.118;2023-03-05T05:43:03;3.10;99.90
12827;DHT22;66927;48.812;9.118;2023-03-05T05:45:29;3.10;99.90
12827;DHT22;66927;48.812;9.118;2023-03-05T05:47:54;3.10;99.90
12827;DHT22;66927;48.812;9.118;2023-03-05T05:50:20;3.20;99.90
12827;DHT22;66927;48.812;9.118;2023-03-05T05:52:46;3.20;99.90
12827;DHT22;66927;48.812;9.118;2023-03-05T05:55:12;3.10;99.90
12827;DHT22;66927;48.812;9.118;2023-03-05T05:57:38;3.20;99.90
12827;DHT22;66927;48.812;9.118;2023-03-05T06:00:07;3.10;99.90
12827;DHT22;66927;48.812;9.118;2023-03-05T06:02:33;3.10;99.90
12827;DHT22;66927;48.812;9.118;2023-03-05T06:05:01;3.00;99.90
12827;DHT22;66927;48.812;9.118;2023-03-05T06:07:27;3.00;99.90
12827;DHT22;66927;48.812;9.118;2023-03-05T06:09:52;3.20;99.90
12827;DHT22;66927;48.812;9.118;2023-03-05T06:12:18;3.10;99.90
12827;DHT22;66927;48.812;9.118;2023-03-05T06:14:44;3.20;99.90
12827;DHT22;66927;48.812;9.118;2023-03-05T06:17:09;3.20;99.90
12827;DHT22;66927;48.812;9.118;2023-03-05T06:19:35;3.10;99.90
12827;DHT22;66927;48.812;9.118;2023-03-05T06:22:01;3.10;99.90
12827;DHT22;66927;48.812;9.118;2023-03-05T06:24:26;3.30;99.90
12827;DHT22;66927;48.812;9.118;2023-03-05T06:26:52;3.10;99.90
12827;DHT22;66927;48.812;9.118;2023-03-05T06:29:18;3.10;99.90
12827;DHT22;66927;48.812;9.118;2023-03-05T06:31:43;3.20;99.90
12827;DHT22;66927;48.812;9.118;2023-03-05T06:34:09;3.20;99.90
12827;DHT22;66927;48.812;9.118;2023-03-05T06:36:38;3.20;99.90
12827;DHT22;66927;48.812;9.118;2023-03-05T06:39:04;3.20;99.90
12827;DHT22;66927;48.812;9.118;2023-03-05T06:41:32;3.10;99.90
12827;DHT22;66927;48.812;9.118;2023-03-05T06:44:01;3.20;99.90
12827;DHT22;66927;48.812;9.118;2023-03-05T06:46:32;3.20;99.90
12827;DHT22;66927;48.812;9.118;2023-03-05T06:49:00;3.30;99.90
12827;DHT22;66927;48.812;9.118;2023-03-05T06:51:32;3.30;99.90
12827;DHT22;66927;48.812;9.118;2023-03-05T06:54:10;3.30;99.90
12827;DHT22;66927;48.812;9.118;2023-03-05T06:56:37;3.30;99.90
12827;DHT22;66927;48.812;9.118;2023-03-05T06:59:04;3.40;99.90
12827;DHT22;66927;48.812;9.118;2023-03-05T07:01:30;3.30;99.90
12827;DHT22;66927;48.812;9.118;2023-03-05T07:03:56;3.50;99.90
12827;DHT22;66927;48.812;9.118;2023-03-05T07:06:28;3.30;99.90
12827;DHT22;66927;48.812;9.118;2023-03-05T07:08:57;3.40;99.90
12827;DHT22;66927;48.812;9.118;2023-03-05T07:11:24;3.40;99.90
12827;DHT22;66927;48.812;9.118;2023-03-05T07:13:50;3.50;99.90
12827;DHT22;66927;48.812;9.118;2023-03-05T07:16:18;3.50;99.90
12827;DHT22;66927;48.812;9.118;2023-03-05T07:18:45;3.50;99.90
12827;DHT22;66927;48.812;9.118;2023-03-05T07:21:22;3.50;99.90
12827;DHT22;66927;48.812;9.118;2023-03-05T07:23:48;3.50;99.90
12827;DHT22;66927;48.812;9.118;2023-03-05T07:26:14;3.50;99.90
12827;DHT22;66927;48.812;9.118;2023-03-05T07:28:40;3.60;99.90
12827;DHT22;66927;48.812;9.118;2023-03-05T07:31:11;3.60;99.90
12827;DHT22;66927;48.812;9.118;2023-03-05T07:33:37;3.60;99.90
12827;DHT22;66927;48.812;9.118;2023-03-05T07:36:05;3.50;99.90
12827;DHT22;66927;48.812;9.118;2023-03-05T07:38:31;3.50;99.90
12827;DHT22;66927;48.812;9.118;2023-03-05T07:41:01;3.50;99.90
12827;DHT22;66927;48.812;9.118;2023-03-05T07:43:27;3.50;99.90
12827;DHT22;66927;48.812;9.118;2023-03-05T07:45:53;3.60;99.90
12827;DHT22;66927;48.812;9.118;2023-03-05T07:48:18;3.70;99.90
12827;DHT22;66927;48.812;9.118;2023-03-05T07:50:47;3.70;99.90
12827;DHT22;66927;48.812;9.118;2023-03-05T07:53:13;3.80;99.90
12827;DHT22;66927;48.812;9.118;2023-03-05T07:55:43;3.80;99.90
12827;DHT22;66927;48.812;9.118;2023-03-05T07:58:10;3.90;99.90
12827;DHT22;66927;48.812;9.118;2023-03-05T08:00:36;4.00;99.90
12827;DHT22;66927;48.812;9.118;2023-03-05T08:03:01;4.00;99.90
12827;DHT22;66927;48.812;9.118;2023-03-05T08:05:27;4.10;99.90
12827;DHT22;66927;48.812;9.118;2023-03-05T08:07:53;4.10;99.90
12827;DHT22;66927;48.812;9.118;2023-03-05T08:10:18;4.00;99.90
12827;DHT22;66927;48.812;9.118;2023-03-05T08:12:44;4.10;99.90
12827;DHT22;66927;48.812;9.118;2023-03-05T08:15:10;4.10;99.90
12827;DHT22;66927;48.812;9.118;2023-03-05T08:17:36;4.10;99.90
12827;DHT22;66927;48.812;9.118;2023-03-05T08:20:02;4.00;99.90
12827;DHT22;66927;48.812;9.118;2023-03-05T08:22:32;4.20;99.90
12827;DHT22;66927;48.812;9.118;2023-03-05T08:24:59;4.20;99.90
12827;DHT22;66927;48.812;9.118;2023-03-05T08:27:25;4.30;99.90
12827;DHT22;66927;48.812;9.118;2023-03-05T08:29:51;4.40;99.90
12827;DHT22;66927;48.812;9.118;2023-03-05T08:32:16;4.50;99.90
12827;DHT22;66927;48.812;9.118;2023-03-05T08:34:42;4.60;99.90
12827;DHT22;66927;48.812;9.118;2023-03-05T08:37:08;4.50;99.90
12827;DHT22;66927;48.812;9.118;2023-03-05T08:39:35;4.50;99.90
12827;DHT22;66927;48.812;9.118;2023-03-05T08:42:01;4.50;99.90
12827;DHT22;66927;48.812;9.118;2023-03-05T08:44:27;4.60;99.90
12827;DHT22;66927;48.812;9.118;2023-03-05T08:46:53;4.60;99.90
12827;DHT22;66927;48.812;9.118;2023-03-05T08:49:19;4.60;99.90
12827;DHT22;66927;48.812;9.118;2023-03-05T08:51:45;4.60;99.90
12827;DHT22;66927;48.812;9.118;2023-03-05T08:54:10;4.50;99.90
12827;DHT22;66927;48.812;9.118;2023-03-05T08:56:36;4.60;99.90
12827;DHT22;66927;48.812;9.118;2023-03-05T08:59:03;4.50;99.90
12827;DHT22;66927;48.812;9.118;2023-03-05T09:01:29;4.50;99.90
12827;DHT22;66927;48.812;9.118;2023-03-05T09:03:59;4.50;99.90
12827;DHT22;66927;48.812;9.118;2023-03-05T09:06:26;4.60;99.90
12827;DHT22;66927;48.812;9.118;2023-03-05T09:08:52;4.70;99.90
12827;DHT22;66927;48.812;9.118;2023-03-05T09:11:18;4.70;99.90
12827;DHT22;66927;48.812;9.118;2023-03-05T09:13:45;4.80;99.90
12827;DHT22;66927;48.812;9.118;2023-03-05T09:16:15;4.80;99.90
12827;DHT22;66927;48.812;9.118;2023-03-05T09:18:41;4.80;99.90
12827;DHT22;66927;48.812;9.118;2023-03-05T09:21:12;4.90;99.90
12827;DHT22;66927;48.812;9.118;2023-03-05T09:23:39;5.10;99.90
12827;DHT22;66927;48.812;9.118;2023-03-05T09:26:06;5.00;99.90
12827;DHT22;66927;48.812;9.118;2023-03-05T09:28:32;5.10;99.90
12827;DHT22;66927;48.812;9.118;2023-03-05T09:31:01;5.20;99.90
12827;DHT22;66927;48.812;9.118;2023-03-05T09:33:27;5.20;99.90
12827;DHT22;66927;48.812;9.118;2023-03-05T09:35:52;5.30;99.90
12827;DHT22;66927;48.812;9.118;2023-03-05T09:38:18;5.20;99.90
12827;DHT22;66927;48.812;9.118;2023-03-05T09:41:03;5.10;99.90
12827;DHT22;66927;48.812;9.118;2023-03-05T09:49:15;5.00;99.90
12827;DHT22;66927;48.812;9.118;2023-03-05T09:51:44;5.00;99.90
12827;DHT22;66927;48.812;9.118;2023-03-05T09:54:36;5.20;99.90
12827;DHT22;66927;48.812;9.118;2023-03-05T09:57:04;5.30;99.90
12827;DHT22;66927;48.812;9.118;2023-03-05T10:02:36;5.40;99.90
12827;DHT22;66927;48.812;9.118;2023-03-05T10:05:44;5.30;99.90
12827;DHT22;66927;48.812;9.118;2023-03-05T10:08:04;5.50;99.90
12827;DHT22;66927;48.812;9.118;2023-03-05T10:13:21;5.50;99.90
12827;DHT22;66927;48.812;9.118;2023-03-05T10:18:43;5.40;99.90
12827;DHT22;66927;48.812;9.118;2023-03-05T10:21:39;5.40;99.90
12827;DHT22;66927;48.812;9.118;2023-03-05T10:27:07;5.40;99.90
12827;DHT22;66927;48.812;9.118;2023-03-05T10:37:47;5.80;99.90
12827;DHT22;66927;48.812;9.118;2023-03-05T10:43:33;5.80;99.90
12827;DHT22;66927;48.812;9.118;2023-03-05T10:46:02;5.70;99.90
12827;DHT22;66927;48.812;9.118;2023-03-05T10:48:56;5.80;99.90
12827;DHT22;66927;48.812;9.118;2023-03-05T10:51:37;5.90;99.90
12827;DHT22;66927;48.812;9.118;2023-03-05T10:54:14;6.00;99.90
12827;DHT22;66927;48.812;9.118;2023-03-05T10:56:42;6.00;99.90
12827;DHT22;66927;48.812;9.118;2023-03-05T10:59:08;6.00;99.90
12827;DHT22;66927;48.812;9.118;2023-03-05T11:01:33;5.90;99.90
12827;DHT22;66927;48.812;9.118;2023-03-05T11:04:03;5.90;99.90
12827;DHT22;66927;48.812;9.118;2023-03-05T11:06:44;5.70;99.90
12827;DHT22;66927;48.812;9.118;2023-03-05T11:11:42;5.50;99.90
12827;DHT22;66927;48.812;9.118;2023-03-05T11:14:24;5.50;99.90
12827;DHT22;66927;48.812;9.118;2023-03-05T11:16:55;5.40;99.90
12827;DHT22;66927;48.812;9.118;2023-03-05T11:24:30;5.10;99.90
12827;DHT22;66927;48.812;9.118;2023-03-05T11:26:56;5.00;99.90
12827;DHT22;66927;48.812;9.118;2023-03-05T11:29:29;4.90;99.90
12827;DHT22;66927;48.812;9.118;2023-03-05T11:31:55;4.90;99.90
12827;DHT22;66927;48.812;9.118;2023-03-05T11:34:38;4.90;99.90
12827;DHT22;66927;48.812;9.118;2023-03-05T11:37:05;4.90;99.90
12827;DHT22;66927;48.812;9.118;2023-03-05T11:39:33;5.00;99.90
12827;DHT22;66927;48.812;9.118;2023-03-05T11:42:02;4.80;99.90
12827;DHT22;66927;48.812;9.118;2023-03-05T11:44:49;4.80;99.90
12827;DHT22;66927;48.812;9.118;2023-03-05T11:47:23;4.90;99.90
12827;DHT22;66927;48.812;9.118;2023-03-05T11:49:54;4.90;99.90
12827;DHT22;66927;48.812;9.118;2023-03-05T11:52:30;4.90;99.90
12827;DHT22;66927;48.812;9.118;2023-03-05T11:55:09;5.00;99.90
12827;DHT22;66927;48.812;9.118;2023-03-05T11:57:52;5.00;99.90
12827;DHT22;66927;48.812;9.118;2023-03-05T12:00:27;5.10;99.90
12827;DHT22;66927;48.812;9.118;2023-03-05T12:02:56;5.20;99.90
12827;DHT22;66927;48.812;9.118;2023-03-05T12:05:23;5.10;99.90
12827;DHT22;66927;48.812;9.118;2023-03-05T12:07:52;5.10;99.90
12827;DHT22;66927;48.812;9.118;2023-03-05T12:10:22;5.10;99.90
12827;DHT22;66927;48.812;9.118;2023-03-05T12:13:20;5.10;99.90
12827;DHT22;66927;48.812;9.118;2023-03-05T12:16:05;5.00;99.90
12827;DHT22;66927;48.812;9.118;2023-03-05T12:21:21;5.10;99.90
12827;DHT22;66927;48.812;9.118;2023-03-05T12:23:56;5.10;99.90
12827;DHT22;66927;48.812;9.118;2023-03-05T12:35:23;5.00;99.90
12827;DHT22;66927;48.812;9.118;2023-03-05T12:42:43;5.10;99.90
12827;DHT22;66927;48.812;9.118;2023-03-05T12:58:07;5.40;99.90
12827;DHT22;66927;48.812;9.118;2023-03-05T13:03:33;5.60;99.90
12827;DHT22;66927;48.812;9.118;2023-03-05T13:06:00;5.60;99.90
12827;DHT22;66927;48.812;9.118;2023-03-05T13:13:35;5.60;99.90
12827;DHT22;66927;48.812;9.118;2023-03-05T13:16:02;5.50;99.90
12827;DHT22;66927;48.812;9.118;2023-03-05T13:18:32;5.60;99.90
12827;DHT22;66927;48.812;9.118;2023-03-05T13:21:03;5.70;99.90
12827;DHT22;66927;48.812;9.118;2023-03-05T13:23:29;5.70;99.90
12827;DHT22;66927;48.812;9.118;2023-03-05T13:28:22;5.60;99.90
12827;DHT22;66927;48.812;9.118;2023-03-05T13:31:00;5.60;99.90
12827;DHT22;66927;48.812;9.118;2023-03-05T13:33:34;5.50;99.90
12827;DHT22;66927;48.812;9.118;2023-03-05T13:36:01;5.50;99.90
12827;DHT22;66927;48.812;9.118;2023-03-05T13:38:38;5.50;99.90
12827;DHT22;66927;48.812;9.118;2023-03-05T13:43:30;5.30;99.90
12827;DHT22;66927;48.812;9.118;2023-03-05T13:45:56;5.40;99.90
12827;DHT22;66927;48.812;9.118;2023-03-05T13:48:25;5.20;99.90
12827;DHT22;66927;48.812;9.118;2023-03-05T13:50:55;5.50;99.90
12827;DHT22;66927;48.812;9.118;2023-03-05T13:53:30;5.40;99.90
12827;DHT22;66927;48.812;9.118;2023-03-05T13:56:01;5.30;99.90
12827;DHT22;66927;48.812;9.118;2023-03-05T14:03:42;5.50;99.90
12827;DHT22;66927;48.812;9.118;2023-03-05T14:06:09;5.50;99.90
12827;DHT22;66927;48.812;9.118;2023-03-05T14:08:36;5.50;99.90
12827;DHT22;66927;48.812;9.118;2023-03-05T14:11:13;5.40;99.90
12827;DHT22;66927;48.812;9.118;2023-03-05T14:13:40;5.30;99.90
12827;DHT22;66927;48.812;9.118;2023-03-05T14:16:28;5.30;99.90
12827;DHT22;66927;48.812;9.118;2023-03-05T14:18:59;5.30;99.90
12827;DHT22;66927;48.812;9.118;2023-03-05T14:21:45;5.20;99.90
12827;DHT22;66927;48.812;9.118;2023-03-05T14:24:19;5.10;99.90
12827;DHT22;66927;48.812;9.118;2023-03-05T14:26:55;5.10;99.90
12827;DHT22;66927;48.812;9.118;2023-03-05T14:29:26;4.90;99.90
12827;DHT22;66927;48.812;9.118;2023-03-05T14:31:55;5.00;99.90
12827;DHT22;66927;48.812;9.118;2023-03-05T14:34:30;5.00;99.90
12827;DHT22;66927;48.812;9.118;2023-03-05T14:37:00;5.00;99.90
12827;DHT22;66927;48.812;9.118;2023-03-05T14:42:35;5.00;99.90
12827;DHT22;66927;48.812;9.118;2023-03-05T14:45:23;5.00;99.90
12827;DHT22;66927;48.812;9.118;2023-03-05T14:47:50;4.90;99.90
12827;DHT22;66927;48.812;9.118;2023-03-05T14:50:20;4.80;99.90
12827;DHT22;66927;48.812;9.118;2023-03-05T14:52:47;4.70;99.90
12827;DHT22;66927;48.812;9.118;2023-03-05T14:55:16;4.80;99.90
12827;DHT22;66927;48.812;9.118;2023-03-05T14:57:42;4.70;99.90
12827;DHT22;66927;48.812;9.118;2023-03-05T15:00:27;4.80;99.90
12827;DHT22;66927;48.812;9.118;2023-03-05T15:02:53;4.70;99.90
12827;DHT22;66927;48.812;9.118;2023-03-05T15:05:19;4.70;99.90
12827;DHT22;66927;48.812;9.118;2023-03-05T15:07:45;4.70;99.90
12827;DHT22;66927;48.812;9.118;2023-03-05T15:10:15;4.60;99.90
12827;DHT22;66927;48.812;9.118;2023-03-05T15:12:41;4.80;99.90
12827;DHT22;66927;48.812;9.118;2023-03-05T15:15:13;4.60;99.90
12827;DHT22;66927;48.812;9.118;2023-03-05T15:17:42;4.60;99.90
12827;DHT22;66927;48.812;9.118;2023-03-05T15:20:20;4.70;99.90
12827;DHT22;66927;48.812;9.118;2023-03-05T15:22:46;4.60;99.90
12827;DHT22;66927;48.812;9.118;2023-03-05T15:25:12;4.30;99.90
12827;DHT22;66927;48.812;9.118;2023-03-05T15:27:38;4.40;99.90
12827;DHT22;66927;48.812;9.118;2023-03-05T15:30:07;4.40;99.90
12827;DHT22;66927;48.812;9.118;2023-03-05T15:32:33;4.30;99.90
12827;DHT22;66927;48.812;9.118;2023-03-05T15:34:58;4.30;99.90
12827;DHT22;66927;48.812;9.118;2023-03-05T15:37:24;4.40;99.90
12827;DHT22;66927;48.812;9.118;2023-03-05T15:39:51;4.50;99.90
12827;DHT22;66927;48.812;9.118;2023-03-05T15:42:17;4.30;99.90
12827;DHT22;66927;48.812;9.118;2023-03-05T15:44:43;4.30;99.90
12827;DHT22;66927;48.812;9.118;2023-03-05T15:47:08;4.30;99.90
12827;DHT22;66927;48.812;9.118;2023-03-05T15:49:34;4.20;99.90
12827;DHT22;66927;48.812;9.118;2023-03-05T15:52:00;4.30;99.90
12827;DHT22;66927;48.812;9.118;2023-03-05T15:54:25;4.10;99.90
12827;DHT22;66927;48.812;9.118;2023-03-05T15:56:52;4.30;99.90
12827;DHT22;66927;48.812;9.118;2023-03-05T15:59:18;4.30;99.90
12827;DHT22;66927;48.812;9.118;2023-03-05T16:01:49;4.40;99.90
12827;DHT22;66927;48.812;9.118;2023-03-05T16:04:16;4.30;99.90
12827;DHT22;66927;48.812;9.118;2023-03-05T16:06:46;4.40;99.90
12827;DHT22;66927;48.812;9.118;2023-03-05T16:09:15;4.30;99.90
12827;DHT22;66927;48.812;9.118;2023-03-05T16:11:42;4.20;99.90
12827;DHT22;66927;48.812;9.118;2023-03-05T16:14:13;4.20;99.90
12827;DHT22;66927;48.812;9.118;2023-03-05T16:16:39;4.10;99.90
12827;DHT22;66927;48.812;9.118;2023-03-05T16:19:07;4.20;99.90
12827;DHT22;66927;48.812;9.118;2023-03-05T16:21:33;4.20;99.90
12827;DHT22;66927;48.812;9.118;2023-03-05T16:23:59;4.10;99.90
12827;DHT22;66927;48.812;9.118;2023-03-05T16:26:25;4.20;99.90
12827;DHT22;66927;48.812;9.118;2023-03-05T16:28:50;4.20;99.90
12827;DHT22;66927;48.812;9.118;2023-03-05T16:31:16;4.10;99.90
12827;DHT22;66927;48.812;9.118;2023-03-05T16:33:42;4.30;99.90
12827;DHT22;66927;48.812;9.118;2023-03-05T16:38:36;4.20;99.90
12827;DHT22;66927;48.812;9.118;2023-03-05T16:41:02;4.20;99.90
12827;DHT22;66927;48.812;9.118;2023-03-05T16:43:31;4.10;99.90
12827;DHT22;66927;48.812;9.118;2023-03-05T16:45:57;4.30;99.90
12827;DHT22;66927;48.812;9.118;2023-03-05T16:48:22;4.20;99.90
12827;DHT22;66927;48.812;9.118;2023-03-05T16:50:48;4.20;99.90
12827;DHT22;66927;48.812;9.118;2023-03-05T16:53:13;4.00;99.90
12827;DHT22;66927;48.812;9.118;2023-03-05T16:55:39;4.10;99.90
12827;DHT22;66927;48.812;9.118;2023-03-05T16:58:05;4.00;99.90
12827;DHT22;66927;48.812;9.118;2023-03-05T17:00:30;4.00;99.90
12827;DHT22;66927;48.812;9.118;2023-03-05T17:02:56;4.10;99.90
12827;DHT22;66927;48.812;9.118;2023-03-05T17:05:22;4.00;99.90
12827;DHT22;66927;48.812;9.118;2023-03-05T17:07:52;3.90;99.90
12827;DHT22;66927;48.812;9.118;2023-03-05T17:10:18;3.90;99.90
12827;DHT22;66927;48.812;9.118;2023-03-05T17:12:43;3.80;99.90
12827;DHT22;66927;48.812;9.118;2023-03-05T17:15:12;3.80;99.90
12827;DHT22;66927;48.812;9.118;2023-03-05T17:17:37;3.90;99.90
12827;DHT22;66927;48.812;9.118;2023-03-05T17:20:05;3.90;99.90
12827;DHT22;66927;48.812;9.118;2023-03-05T17:22:31;3.80;99.90